createdAt,value
2023-04-08T00:00:45.523Z,31.63
2023-04-08T00:03:23.405Z,33.97
2023-04-08T00:05:53.658Z,31.67
2023-04-08T00:08:24.376Z,32.03
2023-04-08T00:10:54.537Z,32.50
2023-04-08T00:13:25.128Z,33.45
2023-04-08T00:15:57.024Z,33.83
2023-04-08T00:18:27.979Z,29.98
2023-04-08T00:20:58.394Z,33.70
2023-04-08T00:23:29.226Z,32.38
2023-04-08T00:25:59.465Z,33.10
2023-04-08T00:28:29.936Z,31.77
2023-04-08T00:31:01.630Z,33.72
2023-04-08T00:33:34.505Z,30.58
2023-04-08T00:36:04.752Z,34.10
2023-04-08T00:38:35.391Z,33.55
2023-04-08T00:41:05.731Z,31.25
2023-04-08T00:43:36.701Z,33.72
2023-04-08T00:46:08.639Z,36.03
2023-04-08T00:48:39.247Z,37.55
2023-04-08T00:51:10.142Z,37.67
2023-04-08T00:53:40.872Z,37.95
2023-04-08T00:56:11.130Z,40.53
2023-04-08T00:58:42.265Z,36.63
2023-04-08T01:01:23.062Z,36.00
2023-04-08T01:04:08.910Z,36.08
2023-04-08T01:06:48.044Z,37.38
2023-04-08T01:09:22.729Z,36.10
2023-04-08T01:11:55.102Z,35.47
2023-04-08T01:14:29.466Z,37.22
2023-04-08T01:17:02.063Z,36.40
2023-04-08T01:19:37.105Z,34.35
2023-04-08T01:22:21.074Z,36.30
2023-04-08T01:24:55.484Z,35.72
2023-04-08T01:27:28.679Z,33.67
2023-04-08T01:30:00.633Z,34.20
2023-04-08T01:32:32.141Z,36.92
2023-04-08T01:35:07.062Z,38.72
2023-04-08T01:37:40.380Z,38.63
2023-04-08T01:40:13.727Z,41.80
2023-04-08T01:42:47.050Z,42.75
2023-04-08T01:45:18.954Z,43.17
2023-04-08T01:47:51.227Z,34.22
2023-04-08T01:50:25.360Z,35.73
2023-04-08T01:52:57.647Z,29.42
2023-04-08T01:55:29.426Z,25.77
2023-04-08T01:58:02.804Z,25.58
2023-04-08T02:00:35.858Z,25.67
2023-04-08T02:03:10.060Z,27.70
2023-04-08T02:05:41.696Z,28.52
2023-04-08T02:08:14.090Z,25.92
2023-04-08T02:10:44.760Z,26.63
2023-04-08T02:13:16.809Z,26.17
2023-04-08T02:15:55.282Z,23.85
2023-04-08T02:18:28.991Z,25.90
2023-04-08T02:21:04.486Z,25.17
2023-04-08T02:23:39.773Z,25.75
2023-04-08T02:26:16.907Z,24.10
2023-04-08T02:28:52.271Z,25.77
2023-04-08T02:31:27.755Z,27.20
2023-04-08T02:33:59.113Z,25.98
2023-04-08T02:36:34.808Z,25.17
2023-04-08T02:39:07.310Z,26.25
2023-04-08T02:41:37.992Z,26.63
2023-04-08T02:44:09.836Z,25.88
2023-04-08T02:46:44.444Z,26.40
2023-04-08T02:49:14.676Z,26.65
2023-04-08T02:51:45.476Z,24.85
2023-04-08T02:54:16.251Z,26.77
2023-04-08T02:56:48.763Z,25.27
2023-04-08T02:59:20.592Z,24.83
2023-04-08T03:01:51.566Z,35.50
2023-04-08T03:04:22.051Z,31.48
2023-04-08T03:06:53.348Z,42.72
2023-04-08T03:09:26.743Z,37.58
2023-04-08T03:11:58.521Z,24.92
2023-04-08T03:14:30.530Z,23.83
2023-04-08T03:17:01.336Z,22.98
2023-04-08T03:19:31.792Z,21.08
2023-04-08T03:22:02.518Z,18.45
2023-04-08T03:24:32.748Z,18.17
2023-04-08T03:27:03.383Z,19.65
2023-04-08T03:29:35.115Z,21.45
2023-04-08T03:32:06.467Z,21.20
2023-04-08T03:34:37.001Z,19.95
2023-04-08T03:37:08.158Z,20.75
2023-04-08T03:39:38.267Z,21.48
2023-04-08T03:42:08.950Z,20.92
2023-04-08T03:44:40.883Z,21.80
2023-04-08T03:47:11.437Z,21.33
2023-04-08T03:49:41.803Z,23.10
2023-04-08T03:52:12.516Z,23.63
2023-04-08T03:54:42.767Z,24.08
2023-04-08T03:57:13.781Z,25.00
2023-04-08T03:59:45.948Z,23.25
2023-04-08T04:02:16.908Z,25.67
2023-04-08T04:04:47.378Z,25.77
2023-04-08T04:07:18.177Z,27.20
2023-04-08T04:09:48.545Z,27.80
2023-04-08T04:12:19.180Z,25.92
2023-04-08T04:14:50.995Z,25.67
2023-04-08T04:17:21.744Z,28.88
2023-04-08T04:19:52.906Z,27.77
2023-04-08T04:22:23.502Z,26.75
2023-04-08T04:24:53.974Z,27.05
2023-04-08T04:27:24.639Z,28.15
2023-04-08T04:29:56.593Z,29.65
2023-04-08T04:32:27.377Z,26.05
2023-04-08T04:34:58.425Z,27.77
2023-04-08T04:37:28.891Z,27.23
2023-04-08T04:39:58.888Z,29.98
2023-04-08T04:42:29.724Z,27.67
2023-04-08T04:45:01.559Z,29.45
2023-04-08T04:47:33.421Z,28.00
2023-04-08T04:50:04.139Z,29.75
2023-04-08T04:52:38.161Z,23.90
2023-04-08T04:55:09.585Z,21.98
2023-04-08T04:57:40.163Z,22.65
2023-04-08T05:00:16.307Z,23.23
2023-04-08T05:02:47.472Z,21.73
2023-04-08T05:05:18.610Z,24.05
2023-04-08T05:07:49.548Z,24.90
2023-04-08T05:10:20.052Z,23.13
2023-04-08T05:12:51.361Z,21.63
2023-04-08T05:15:24.476Z,20.92
2023-04-08T05:17:56.251Z,21.58
2023-04-08T05:20:26.800Z,22.27
2023-04-08T05:22:57.610Z,22.50
2023-04-08T05:25:27.794Z,22.65
2023-04-08T05:27:58.740Z,23.85
2023-04-08T05:30:30.645Z,23.48
2023-04-08T05:33:01.367Z,23.35
2023-04-08T05:35:32.014Z,23.13
2023-04-08T05:38:02.745Z,23.13
2023-04-08T05:40:33.000Z,24.98
2023-04-08T05:43:03.739Z,25.92
2023-04-08T05:45:35.755Z,27.00
2023-04-08T05:48:06.859Z,28.57
2023-04-08T05:50:37.703Z,32.75
2023-04-08T05:53:08.256Z,31.98
2023-04-08T05:55:38.421Z,27.92
2023-04-08T05:58:09.231Z,27.38
2023-04-08T06:00:41.324Z,25.80
2023-04-08T06:03:12.320Z,24.87
2023-04-08T06:05:42.582Z,26.42
2023-04-08T06:08:13.125Z,24.40
2023-04-08T06:10:50.108Z,25.80
2023-04-08T06:13:22.124Z,25.60
2023-04-08T06:15:54.281Z,25.30
2023-04-08T06:18:25.897Z,25.52
2023-04-08T06:21:00.048Z,24.87
2023-04-08T06:26:30.586Z,22.90
2023-04-08T06:29:03.323Z,22.55
2023-04-08T06:31:35.132Z,23.33
2023-04-08T06:34:05.814Z,20.70
2023-04-08T06:36:36.949Z,18.63
2023-04-08T06:39:07.738Z,19.40
2023-04-08T06:41:38.019Z,21.13
2023-04-08T06:44:22.821Z,20.83
2023-04-08T06:46:54.613Z,21.08
2023-04-08T06:49:27.178Z,20.80
2023-04-08T06:51:58.488Z,20.40
2023-04-08T06:54:29.330Z,19.75
2023-04-08T06:57:00.019Z,19.73
2023-04-08T06:59:32.041Z,19.50
2023-04-08T07:02:05.273Z,19.17
2023-04-08T07:04:38.889Z,19.83
2023-04-08T07:07:09.740Z,18.85
2023-04-08T07:09:41.761Z,19.33
2023-04-08T07:12:12.456Z,20.85
2023-04-08T07:14:43.101Z,19.65
2023-04-08T07:17:15.024Z,20.15
2023-04-08T07:19:46.102Z,19.20
2023-04-08T07:22:16.512Z,18.80
2023-04-08T07:24:49.975Z,20.73
2023-04-08T07:27:20.757Z,19.92
2023-04-08T07:29:55.317Z,19.75
2023-04-08T07:32:27.734Z,18.20
2023-04-08T07:34:58.381Z,18.52
2023-04-08T07:37:28.717Z,17.70
2023-04-08T07:39:59.124Z,16.40
2023-04-08T07:42:29.405Z,15.60
2023-04-08T07:45:00.120Z,16.25
2023-04-08T07:47:32.059Z,15.57
2023-04-08T07:50:02.949Z,16.35
2023-04-08T07:52:33.785Z,16.27
2023-04-08T07:55:05.951Z,14.10
2023-04-08T07:57:36.612Z,14.85
2023-04-08T08:00:09.456Z,14.27
2023-04-08T08:02:48.227Z,15.90
2023-04-08T08:05:19.350Z,16.30
2023-04-08T08:07:50.592Z,14.15
2023-04-08T08:10:21.341Z,15.25
2023-04-08T08:12:51.736Z,15.15
2023-04-08T08:15:22.394Z,15.98
2023-04-08T08:17:54.318Z,16.20
2023-04-08T08:20:25.070Z,16.20
2023-04-08T08:22:57.722Z,15.82
2023-04-08T08:25:29.312Z,15.23
2023-04-08T08:28:02.726Z,15.80
2023-04-08T08:30:34.029Z,14.80
2023-04-08T08:33:05.995Z,15.02
2023-04-08T08:35:37.831Z,15.50
2023-04-08T08:38:08.009Z,16.83
2023-04-08T08:40:38.760Z,14.20
2023-04-08T08:43:09.197Z,14.57
2023-04-08T08:45:42.287Z,15.10
2023-04-08T08:48:14.202Z,15.93
2023-04-08T08:50:45.153Z,15.43
2023-04-08T08:53:15.500Z,15.25
2023-04-08T08:56:13.714Z,16.13
2023-04-08T08:58:36.700Z,14.95
2023-04-08T09:01:35.713Z,15.35
2023-04-08T09:04:14.451Z,16.42
2023-04-08T09:06:47.064Z,15.93
2023-04-08T09:09:17.384Z,16.85
2023-04-08T09:11:48.830Z,16.52
2023-04-08T09:14:23.805Z,15.70
2023-04-08T09:16:55.066Z,16.48
2023-04-08T09:19:26.886Z,15.13
2023-04-08T09:22:08.103Z,15.18
2023-04-08T09:24:39.429Z,14.60
2023-04-08T09:27:09.906Z,15.52
2023-04-08T09:29:41.187Z,16.83
2023-04-08T09:32:11.872Z,16.52
2023-04-08T09:34:43.493Z,17.15
2023-04-08T09:37:14.203Z,16.88
2023-04-08T09:39:44.398Z,18.48
2023-04-08T09:42:15.993Z,18.40
2023-04-08T09:44:48.556Z,17.67
2023-04-08T09:47:38.429Z,15.75
2023-04-08T09:50:12.105Z,17.00
2023-04-08T09:52:50.432Z,14.85
2023-04-08T09:55:24.731Z,14.65
2023-04-08T09:58:00.721Z,15.00
2023-04-08T10:00:39.110Z,15.18
2023-04-08T10:03:20.357Z,16.42
2023-04-08T10:05:54.211Z,15.77
2023-04-08T10:08:26.504Z,15.65
2023-04-08T10:10:57.595Z,16.30
2023-04-08T10:13:29.975Z,16.75
2023-04-08T10:16:22.420Z,17.27
2023-04-08T10:18:56.197Z,18.30
2023-04-08T10:24:14.356Z,15.65
2023-04-08T10:26:46.480Z,16.02
2023-04-08T10:29:44.011Z,15.50
2023-04-08T10:32:41.898Z,16.42
2023-04-08T10:35:12.608Z,15.30
2023-04-08T10:37:44.985Z,14.70
2023-04-08T10:40:21.421Z,15.43
2023-04-08T10:42:57.061Z,14.27
2023-04-08T10:45:28.040Z,16.00
2023-04-08T10:47:58.626Z,15.43
2023-04-08T10:50:29.424Z,14.30
2023-04-08T10:53:01.281Z,14.38
2023-04-08T10:55:33.918Z,13.75
2023-04-08T10:58:11.300Z,13.15
2023-04-08T11:00:42.277Z,12.63
2023-04-08T11:03:15.069Z,13.23
2023-04-08T11:05:46.433Z,12.90
2023-04-08T11:08:20.886Z,14.52
2023-04-08T11:10:51.981Z,14.10
2023-04-08T11:13:23.588Z,12.57
2023-04-08T11:15:54.791Z,13.82
2023-04-08T11:18:26.279Z,13.55
2023-04-08T11:20:58.957Z,14.13
2023-04-08T11:23:32.165Z,14.52
2023-04-08T11:26:04.669Z,14.00
2023-04-08T11:31:09.078Z,14.68
2023-04-08T11:33:39.574Z,13.00
2023-04-08T11:36:10.217Z,16.77
2023-04-08T11:38:42.757Z,24.60
2023-04-08T11:41:13.619Z,14.23
2023-04-08T11:43:54.782Z,13.60
2023-04-08T11:46:26.068Z,12.30
2023-04-08T11:49:05.226Z,12.65
2023-04-08T11:51:37.997Z,12.98
2023-04-08T11:54:30.978Z,13.48
2023-04-08T11:57:03.196Z,14.15
2023-04-08T11:59:33.467Z,13.32
2023-04-08T12:02:04.875Z,13.63
2023-04-08T12:04:35.986Z,13.38
2023-04-08T12:07:08.233Z,13.25
2023-04-08T12:09:40.368Z,11.98
2023-04-08T12:12:12.346Z,11.73
2023-04-08T12:14:43.569Z,12.52
2023-04-08T12:17:15.087Z,12.00
2023-04-08T12:19:45.575Z,12.63
2023-04-08T12:22:19.465Z,12.20
2023-04-08T12:24:51.632Z,13.27
2023-04-08T12:27:22.634Z,13.97
2023-04-08T12:29:53.574Z,13.15
2023-04-08T12:32:25.583Z,12.05
2023-04-08T12:34:56.072Z,12.45
2023-04-08T12:37:27.349Z,13.07
2023-04-08T12:39:59.059Z,11.13
2023-04-08T12:42:29.883Z,11.93
2023-04-08T12:45:00.153Z,12.95
2023-04-08T12:47:30.742Z,12.90
2023-04-08T12:50:01.112Z,12.32
2023-04-08T12:52:32.101Z,13.25
2023-04-08T12:55:03.772Z,13.45
2023-04-08T12:57:34.545Z,14.52
2023-04-08T13:00:05.634Z,13.35
2023-04-08T13:02:36.538Z,12.13
2023-04-08T13:05:07.716Z,12.18
2023-04-08T13:07:38.646Z,11.40
2023-04-08T13:10:11.485Z,12.23
2023-04-08T13:12:42.262Z,11.30
2023-04-08T13:15:13.231Z,11.57
2023-04-08T13:17:43.955Z,11.95
2023-04-08T13:20:14.661Z,12.18
2023-04-08T13:22:45.502Z,12.52
2023-04-08T13:25:17.212Z,13.52
2023-04-08T13:27:47.807Z,12.20
2023-04-08T13:30:18.338Z,11.30
2023-04-08T13:32:49.221Z,11.52
2023-04-08T13:35:19.631Z,10.80
2023-04-08T13:37:50.526Z,10.98
2023-04-08T13:40:22.063Z,10.38
2023-04-08T13:42:52.856Z,10.23
2023-04-08T13:45:23.583Z,9.75
2023-04-08T13:47:54.458Z,10.15
2023-04-08T13:50:25.000Z,10.90
2023-04-08T13:52:57.185Z,11.07
2023-04-08T13:55:29.033Z,9.32
2023-04-08T13:57:59.889Z,10.65
2023-04-08T14:00:31.396Z,11.27
2023-04-08T14:03:02.280Z,9.18
2023-04-08T14:05:32.763Z,10.65
2023-04-08T14:08:03.385Z,10.90
2023-04-08T14:10:35.375Z,11.40
2023-04-08T14:13:06.238Z,11.85
2023-04-08T14:15:36.648Z,9.68
2023-04-08T14:18:09.419Z,11.40
2023-04-08T14:20:41.488Z,11.25
2023-04-08T14:23:13.636Z,10.93
2023-04-08T14:25:45.395Z,11.48
2023-04-08T14:28:16.453Z,13.07
2023-04-08T14:30:47.613Z,10.77
2023-04-08T14:33:19.051Z,10.35
2023-04-08T14:35:49.339Z,10.80
2023-04-08T14:38:20.789Z,9.35
2023-04-08T14:40:52.674Z,11.13
2023-04-08T14:43:23.253Z,10.10
2023-04-08T14:45:53.947Z,9.82
2023-04-08T14:48:26.050Z,11.07
2023-04-08T14:50:57.065Z,11.82
2023-04-08T14:53:28.589Z,10.85
2023-04-08T14:56:02.251Z,11.30
2023-04-08T14:58:33.173Z,13.57
2023-04-08T15:01:03.752Z,11.23
2023-04-08T15:03:34.701Z,11.65
2023-04-08T15:06:06.681Z,13.48
2023-04-08T15:08:37.722Z,12.02
2023-04-08T15:11:09.831Z,11.95
2023-04-08T15:13:44.610Z,12.48
2023-04-08T15:16:17.874Z,11.50
2023-04-08T15:18:49.462Z,11.27
2023-04-08T15:21:23.615Z,11.48
2023-04-08T15:23:55.424Z,11.88
2023-04-08T15:26:27.503Z,11.27
2023-04-08T15:28:59.227Z,12.37
2023-04-08T15:31:29.589Z,13.00
2023-04-08T15:34:02.903Z,12.68
2023-04-08T15:36:33.902Z,12.25
2023-04-08T15:39:04.857Z,15.82
2023-04-08T15:41:36.629Z,14.40
2023-04-08T15:44:07.516Z,13.02
2023-04-08T15:46:38.178Z,14.15
2023-04-08T15:49:09.106Z,13.40
2023-04-08T15:51:39.587Z,15.00
2023-04-08T15:54:10.232Z,14.13
2023-04-08T15:56:42.584Z,13.35
2023-04-08T15:59:13.339Z,15.02
2023-04-08T16:01:44.279Z,14.73
2023-04-08T16:04:16.357Z,18.63
2023-04-08T16:06:47.397Z,15.65
2023-04-08T16:09:26.059Z,14.50
2023-04-08T16:11:57.899Z,14.50
2023-04-08T16:14:31.016Z,16.42
2023-04-08T16:17:06.493Z,14.80
2023-04-08T16:19:37.536Z,13.73
2023-04-08T16:22:08.023Z,14.07
2023-04-08T16:24:38.699Z,15.48
2023-04-08T16:27:10.990Z,14.40
2023-04-08T16:29:42.266Z,15.85
2023-04-08T16:32:12.590Z,15.05
2023-04-08T16:34:43.373Z,14.68
2023-04-08T16:37:14.840Z,15.75
2023-04-08T16:39:46.280Z,15.15
2023-04-08T16:42:18.439Z,16.67
2023-04-08T16:44:49.297Z,16.02
2023-04-08T16:47:19.543Z,14.73
2023-04-08T16:49:50.380Z,15.90
2023-04-08T16:52:21.091Z,17.52
2023-04-08T16:54:52.468Z,21.65
2023-04-08T16:57:24.196Z,22.02
2023-04-08T16:59:55.276Z,25.48
2023-04-08T17:02:26.134Z,23.77
2023-04-08T17:04:57.387Z,22.35
2023-04-08T17:07:28.438Z,23.92
2023-04-08T17:09:59.228Z,21.48
2023-04-08T17:12:31.462Z,21.45
2023-04-08T17:15:02.355Z,20.20
2023-04-08T17:17:33.482Z,20.05
2023-04-08T17:20:04.424Z,18.52
2023-04-08T17:22:34.787Z,20.95
2023-04-08T17:25:08.149Z,20.40
2023-04-08T17:27:40.212Z,19.35
2023-04-08T17:30:15.151Z,17.90
2023-04-08T17:32:46.136Z,20.75
2023-04-08T17:35:17.400Z,21.52
2023-04-08T17:37:47.774Z,21.90
2023-04-08T17:40:19.065Z,23.52
2023-04-08T17:42:50.956Z,23.08
2023-04-08T17:45:21.887Z,23.98
2023-04-08T17:47:53.015Z,25.17
2023-04-08T17:50:23.968Z,23.88
2023-04-08T17:52:54.668Z,25.50
2023-04-08T17:55:25.955Z,26.75
2023-04-08T17:57:57.820Z,28.08
2023-04-08T18:00:29.206Z,27.13
2023-04-08T18:02:59.502Z,28.02
2023-04-08T18:05:30.809Z,26.65
2023-04-08T18:08:00.976Z,28.35
2023-04-08T18:10:32.199Z,26.33
2023-04-08T18:15:38.127Z,23.60
2023-04-08T18:18:09.265Z,23.17
2023-04-08T18:20:40.081Z,22.38
2023-04-08T18:23:10.445Z,23.52
2023-04-08T18:25:44.629Z,24.90
2023-04-08T18:28:16.569Z,24.40
2023-04-08T18:30:51.598Z,22.55
2023-04-08T18:33:22.187Z,24.48
2023-04-08T18:35:53.814Z,24.17
2023-04-08T18:38:24.258Z,25.10
2023-04-08T18:40:56.453Z,25.25
2023-04-08T18:43:28.878Z,24.13
2023-04-08T18:45:59.829Z,25.07
2023-04-08T18:48:30.677Z,24.77
2023-04-08T18:51:04.410Z,24.80
2023-04-08T18:56:14.880Z,26.50
2023-04-08T18:58:47.607Z,25.52
2023-04-08T19:01:20.723Z,24.17
2023-04-08T19:03:52.056Z,25.17
2023-04-08T19:06:23.423Z,26.20
2023-04-08T19:08:54.210Z,25.58
2023-04-08T19:11:29.032Z,26.05
2023-04-08T19:14:01.380Z,27.05
2023-04-08T19:16:32.108Z,26.25
2023-04-08T19:19:02.880Z,25.67
2023-04-08T19:21:35.001Z,28.55
2023-04-08T19:24:06.569Z,26.17
2023-04-08T19:26:37.448Z,24.88
2023-04-08T19:29:12.000Z,26.50
2023-04-08T19:31:42.985Z,27.42
2023-04-08T19:34:13.626Z,27.48
2023-04-08T19:36:44.379Z,28.80
2023-04-08T19:39:14.586Z,27.52
2023-04-08T19:41:45.505Z,28.02
2023-04-08T19:44:17.355Z,27.52
2023-04-08T19:46:50.786Z,29.65
2023-04-08T19:49:21.890Z,29.48
2023-04-08T19:51:52.729Z,30.58
2023-04-08T19:54:23.069Z,30.83
2023-04-08T19:56:53.991Z,31.73
2023-04-08T19:59:26.081Z,32.38
2023-04-08T20:01:56.916Z,32.08
2023-04-08T20:04:27.567Z,31.38
2023-04-08T20:06:58.423Z,31.48
2023-04-08T20:09:28.695Z,32.83
2023-04-08T20:12:04.639Z,30.63
2023-04-08T20:14:40.580Z,34.33
2023-04-08T20:17:11.442Z,35.63
2023-04-08T20:19:42.192Z,34.10
2023-04-08T20:22:12.787Z,35.03
2023-04-08T20:24:43.173Z,31.83
2023-04-08T20:27:13.912Z,33.33
2023-04-08T20:29:45.610Z,33.75
2023-04-08T20:32:16.270Z,33.97
2023-04-08T20:34:46.818Z,35.80
2023-04-08T20:37:18.401Z,35.17
2023-04-08T20:39:49.224Z,33.08
2023-04-08T20:42:22.789Z,33.60
2023-04-08T20:45:08.319Z,31.58
2023-04-08T20:47:55.635Z,31.88
2023-04-08T20:50:28.569Z,31.52
2023-04-08T20:52:59.420Z,32.58
2023-04-08T20:55:30.638Z,33.90
2023-04-08T20:58:05.863Z,32.53
2023-04-08T21:00:40.318Z,31.98
2023-04-08T21:03:11.233Z,31.85
2023-04-08T21:05:42.662Z,31.58
2023-04-08T21:08:14.951Z,31.55
2023-04-08T21:10:45.630Z,34.70
2023-04-08T21:13:16.388Z,34.45
2023-04-08T21:15:49.225Z,34.72
2023-04-08T21:18:21.410Z,32.78
2023-04-08T21:20:53.939Z,34.03
2023-04-08T21:23:25.079Z,34.33
2023-04-08T21:26:05.582Z,31.95
2023-04-08T21:28:42.162Z,32.53
2023-04-08T21:31:19.074Z,33.55
2023-04-08T21:33:50.992Z,31.50
2023-04-08T21:36:24.422Z,30.45
2023-04-08T21:38:57.777Z,30.33
2023-04-08T21:41:30.302Z,32.97
2023-04-08T21:44:01.473Z,32.45
2023-04-08T21:49:07.923Z,31.10
2023-04-08T21:51:41.043Z,31.60
2023-04-08T21:54:23.594Z,32.33
2023-04-08T21:56:56.652Z,32.92
2023-04-08T21:59:27.875Z,32.15
2023-04-08T22:02:00.074Z,30.95
2023-04-08T22:04:31.209Z,30.90
2023-04-08T22:07:01.609Z,31.67
2023-04-08T22:09:32.143Z,29.60
2023-04-08T22:12:02.835Z,30.23
2023-04-08T22:14:33.679Z,30.70
2023-04-08T22:17:05.843Z,29.70
2023-04-08T22:19:36.695Z,29.90
2023-04-08T22:22:06.988Z,32.47
2023-04-08T22:24:38.261Z,29.58
2023-04-08T22:27:08.578Z,30.63
2023-04-08T22:29:39.251Z,32.10
2023-04-08T22:32:10.966Z,31.85
2023-04-08T22:34:42.434Z,32.22
2023-04-08T22:37:12.806Z,31.98
2023-04-08T22:39:43.366Z,33.25
2023-04-08T22:42:13.480Z,33.72
2023-04-08T22:44:44.042Z,33.03
2023-04-08T22:47:15.828Z,33.20
2023-04-08T22:49:46.468Z,33.72
2023-04-08T22:52:16.907Z,29.08
2023-04-08T22:54:48.055Z,34.28
2023-04-08T22:57:18.398Z,34.97
2023-04-08T22:59:49.060Z,34.22
2023-04-08T23:02:20.921Z,30.30
2023-04-08T23:04:56.189Z,33.15
2023-04-08T23:07:26.319Z,39.00
2023-04-08T23:09:56.950Z,37.85
2023-04-08T23:12:27.528Z,38.65
2023-04-08T23:14:58.521Z,34.20
2023-04-08T23:17:30.008Z,32.33
2023-04-08T23:20:00.647Z,35.67
2023-04-08T23:22:31.190Z,36.05
2023-04-08T23:25:02.357Z,35.45
2023-04-08T23:27:32.934Z,35.95
2023-04-08T23:30:05.795Z,35.60
2023-04-08T23:32:37.937Z,38.90
2023-04-08T23:35:10.781Z,38.28
2023-04-08T23:37:41.136Z,31.77
2023-04-08T23:40:12.382Z,37.58
2023-04-08T23:42:42.668Z,36.38
2023-04-08T23:45:13.500Z,37.30
2023-04-08T23:47:45.142Z,36.45
2023-04-08T23:50:15.907Z,32.22
2023-04-08T23:52:46.435Z,34.10
2023-04-08T23:55:17.409Z,34.58
2023-04-08T23:57:49.345Z,34.83
